Time;durP1;ratioP1;P1;durP2;ratioP2;P2;SDS_P1;SDS_P2;PMS_P1;PMS_P2;Temp;Humidity;BMP_temperature;BMP_pressure;BME280_temperature;BME280_humidity;BME280_pressure;Samples;Min_cycle;Max_cycle;Signal;HPM_P1;HPM_P2
2022/03/31 00:00:36;;;;;;;45.45;15.63;;;;;;;8.62;100.00;100170.34;1558259;91;21170;-82
2022/03/31 00:03:06;;;;;;;43.90;15.93;;;;;;;8.63;100.00;100180.01;1557874;91;21245;-81
2022/03/31 00:05:33;;;;;;;55.58;17.27;;;;;;;8.62;100.00;100178.40;1560773;90;21136;-82
2022/03/31 00:08:09;;;;;;;38.75;15.60;;;;;;;8.61;100.00;100174.08;1555742;91;21006;-81
2022/03/31 00:10:40;;;;;;;55.35;17.23;;;;;;;8.61;100.00;100171.39;1561745;91;21388;-82
2022/03/31 00:13:13;;;;;;;43.33;16.00;;;;;;;8.60;100.00;100170.58;1551762;90;22319;-81
2022/03/31 00:15:39;;;;;;;51.98;17.05;;;;;;;8.58;100.00;100169.22;1580088;87;21173;-81
2022/03/31 00:18:08;;;;;;;39.10;16.27;;;;;;;8.54;100.00;100174.30;1550452;90;21083;-82
2022/03/31 00:20:34;;;;;;;45.35;17.40;;;;;;;8.50;100.00;100176.39;1562268;90;21096;-81
2022/03/31 00:23:01;;;;;;;46.45;15.98;;;;;;;8.45;100.00;100177.72;1568718;89;21602;-81
2022/03/31 00:25:28;;;;;;;47.70;16.48;;;;;;;8.36;100.00;100180.03;1560559;90;21043;-81
2022/03/31 00:27:57;;;;;;;50.10;16.55;;;;;;;8.29;100.00;100174.84;1554827;91;21146;-82
2022/03/31 00:30:25;;;;;;;35.90;14.85;;;;;;;8.26;100.00;100169.19;1562331;91;21661;-82
2022/03/31 00:32:52;;;;;;;46.00;16.73;;;;;;;8.20;100.00;100171.01;1549720;90;21251;-81
2022/03/31 00:35:19;;;;;;;41.10;15.15;;;;;;;8.13;100.00;100178.47;1562863;90;21062;-82
2022/03/31 00:37:46;;;;;;;47.48;16.65;;;;;;;8.07;100.00;100169.55;1587560;86;21157;-82
2022/03/31 00:40:15;;;;;;;44.53;15.85;;;;;;;8.00;100.00;100163.59;1632083;86;21523;-82
2022/03/31 00:42:49;;;;;;;41.60;15.15;;;;;;;7.96;100.00;100164.61;1629710;86;21071;-82
2022/03/31 00:45:29;;;;;;;41.00;14.80;;;;;;;7.90;100.00;100172.86;1551626;90;21110;-82
2022/03/31 00:47:56;;;;;;;47.83;15.08;;;;;;;7.83;100.00;100177.62;1572216;90;21171;-82
2022/03/31 00:50:25;;;;;;;41.88;14.93;;;;;;;7.79;100.00;100179.17;1582964;87;21142;-82
2022/03/31 00:52:51;;;;;;;41.70;14.80;;;;;;;7.74;100.00;100174.58;1599829;87;21193;-82
2022/03/31 00:55:19;;;;;;;43.75;16.23;;;;;;;7.69;100.00;100178.00;1623544;86;21236;-82
2022/03/31 00:57:47;;;;;;;39.35;14.35;;;;;;;7.66;100.00;100179.05;1627133;86;21197;-80
2022/03/31 01:00:16;;;;;;;39.42;14.50;;;;;;;7.64;100.00;100177.13;1625740;86;21255;-82
2022/03/31 01:02:44;;;;;;;41.77;14.85;;;;;;;7.61;100.00;100183.00;1623111;86;21144;-82
2022/03/31 01:05:16;;;;;;;42.70;14.95;;;;;;;7.58;100.00;100187.52;1611614;86;21233;-81
2022/03/31 01:07:43;;;;;;;39.08;15.20;;;;;;;7.55;100.00;100190.70;1604579;86;20930;-82
2022/03/31 01:10:11;;;;;;;41.37;14.95;;;;;;;7.55;100.00;100186.68;1619502;86;21446;-82
2022/03/31 01:12:38;;;;;;;39.25;15.08;;;;;;;7.48;100.00;100190.90;1614421;86;21353;-82
2022/03/31 01:15:12;;;;;;;39.85;14.33;;;;;;;7.42;100.00;100187.88;1603281;87;21186;-82
2022/03/31 01:17:40;;;;;;;37.73;14.55;;;;;;;7.37;100.00;100189.14;1604257;87;21141;-82
2022/03/31 01:20:11;;;;;;;44.00;15.70;;;;;;;7.31;100.00;100191.47;1617188;86;20995;-82
2022/03/31 01:22:37;;;;;;;39.15;14.95;;;;;;;7.27;100.00;100192.50;1618040;86;21105;-82
2022/03/31 01:25:07;;;;;;;35.65;15.15;;;;;;;7.25;100.00;100199.44;1608834;86;21291;-82
2022/03/31 01:27:38;;;;;;;48.35;15.38;;;;;;;7.21;100.00;100201.00;1605999;86;21045;-82
2022/03/31 01:30:13;;;;;;;41.58;15.65;;;;;;;7.20;100.00;100203.91;1566927;89;21288;-82
2022/03/31 01:32:40;;;;;;;48.73;16.07;;;;;;;7.17;100.00;100211.11;1549245;90;21081;-82
2022/03/31 01:35:08;;;;;;;45.50;16.50;;;;;;;7.14;100.00;100208.92;1541051;91;21236;-82
2022/03/31 01:37:34;;;;;;;43.98;16.00;;;;;;;7.12;100.00;100215.05;1540973;92;21187;-82
2022/03/31 01:40:01;;;;;;;44.40;15.78;;;;;;;7.08;100.00;100212.05;1549619;90;21552;-82
2022/03/31 01:42:29;;;;;;;42.90;15.08;;;;;;;7.05;100.00;100218.71;1580930;88;21153;-82
2022/03/31 01:44:56;;;;;;;41.02;14.40;;;;;;;6.99;100.00;100213.00;1595239;88;21059;-82
2022/03/31 01:47:23;;;;;;;43.68;16.73;;;;;;;6.96;100.00;100216.17;1603082;87;21574;-82
2022/03/31 01:49:49;;;;;;;41.53;15.55;;;;;;;6.96;100.00;100212.69;1609008;88;21074;-82
2022/03/31 01:52:15;;;;;;;46.65;16.70;;;;;;;6.93;100.00;100211.84;1544793;89;21052;-81
2022/03/31 01:54:42;;;;;;;43.63;15.53;;;;;;;6.91;100.00;100213.94;1527923;91;21154;-82
2022/03/31 01:57:08;;;;;;;42.10;15.58;;;;;;;6.89;100.00;100210.18;1535672;91;21229;-82
2022/03/31 01:59:42;;;;;;;46.50;16.27;;;;;;;6.90;100.00;100209.65;1534704;91;21179;-82
2022/03/31 02:02:12;;;;;;;40.55;15.80;;;;;;;6.88;100.00;100211.22;1499410;93;21140;-82
2022/03/31 02:04:41;;;;;;;49.00;16.52;;;;;;;6.85;100.00;100208.22;1550611;91;21198;-82
2022/03/31 02:07:09;;;;;;;48.52;16.85;;;;;;;6.86;100.00;100211.20;1546341;91;21859;-82
2022/03/31 02:09:36;;;;;;;51.15;17.85;;;;;;;6.83;100.00;100201.25;1541578;91;21153;-82
2022/03/31 02:12:03;;;;;;;46.90;16.52;;;;;;;6.83;100.00;100200.45;1532107;91;21147;-82
2022/03/31 02:14:30;;;;;;;48.70;15.80;;;;;;;6.84;100.00;100196.70;1547389;91;21100;-82
2022/03/31 02:16:56;;;;;;;48.02;16.10;;;;;;;6.82;100.00;100199.64;1536746;91;21221;-82
2022/03/31 02:19:24;;;;;;;46.60;17.15;;;;;;;6.82;100.00;100193.45;1538488;91;21246;-82
2022/03/31 02:21:51;;;;;;;43.83;16.52;;;;;;;6.85;100.00;100197.51;1538165;91;21728;-82
2022/03/31 02:24:17;;;;;;;51.42;16.40;;;;;;;6.85;100.00;100201.53;1569540;89;21074;-82
2022/03/31 02:26:44;;;;;;;44.45;16.85;;;;;;;6.85;100.00;100206.89;1612621;85;21072;-82
2022/03/31 02:29:12;;;;;;;49.15;18.05;;;;;;;6.85;100.00;100206.89;1701857;80;21051;-82
2022/03/31 02:31:38;;;;;;;48.75;17.25;;;;;;;6.86;100.00;100212.02;1752924;80;21074;-82
2022/03/31 02:34:04;;;;;;;49.25;15.68;;;;;;;6.88;100.00;100215.23;1750758;80;20986;-82
2022/03/31 02:36:30;;;;;;;52.43;17.12;;;;;;;6.91;100.00;100209.42;1746864;80;21061;-82
2022/03/31 02:39:00;;;;;;;48.45;16.82;;;;;;;6.96;100.00;100208.67;1740974;80;21507;-81
2022/03/31 02:41:27;;;;;;;52.88;15.90;;;;;;;6.99;100.00;100209.52;1742933;80;21060;-82
2022/03/31 02:46:28;;;;;;;48.52;17.12;;;;;;;7.07;100.00;100206.42;1510655;92;22497;-82
2022/03/31 02:48:58;;;;;;;56.13;16.80;;;;;;;7.10;100.00;100212.63;1500539;93;21181;-82
2022/03/31 02:51:25;;;;;;;44.98;16.07;;;;;;;7.12;100.00;100213.70;1512075;93;21109;-82
2022/03/31 02:56:49;;;;;;;45.12;16.57;;;;;;;7.17;100.00;100210.58;1488852;93;21574;-81
2022/03/31 02:59:15;;;;;;;53.78;16.25;;;;;;;7.19;100.00;100212.48;1410343;100;21159;-82
2022/03/31 03:01:45;;;;;;;55.78;17.10;;;;;;;7.23;100.00;100204.23;1405577;100;21271;-82
2022/03/31 03:04:11;;;;;;;47.33;15.72;;;;;;;7.27;100.00;100209.92;1401508;101;21589;-82
2022/03/31 03:06:38;;;;;;;60.98;16.40;;;;;;;7.29;100.00;100206.45;1409338;101;21212;-82
2022/03/31 03:09:07;;;;;;;41.48;15.15;;;;;;;7.34;100.00;100205.72;1407373;101;21208;-82
2022/03/31 03:11:34;;;;;;;67.50;22.98;;;;;;;7.38;100.00;100205.49;1416969;99;21144;-82
2022/03/31 03:14:00;;;;;;;95.57;33.95;;;;;;;7.42;100.00;100209.31;1416926;100;21123;-82
2022/03/31 03:16:26;;;;;;;50.50;17.12;;;;;;;7.48;100.00;100211.00;1416690;100;21129;-82
2022/03/31 03:18:53;;;;;;;50.08;18.00;;;;;;;7.51;100.00;100211.84;1414601;100;21100;-82
2022/03/31 03:21:20;;;;;;;47.60;15.53;;;;;;;7.53;100.00;100207.05;1405840;101;21214;-82
2022/03/31 03:23:48;;;;;;;46.60;14.95;;;;;;;7.56;100.00;100212.42;1422094;98;21179;-82
2022/03/31 03:26:15;;;;;;;46.75;14.87;;;;;;;7.57;100.00;100206.83;1451707;97;21147;-83
2022/03/31 03:28:41;;;;;;;54.58;15.20;;;;;;;7.61;100.00;100207.94;1455031;98;21171;-84
2022/03/31 03:31:08;;;;;;;52.23;15.68;;;;;;;7.65;100.00;100213.64;1456532;97;21103;-84
2022/03/31 03:33:35;;;;;;;43.40;14.23;;;;;;;7.67;100.00;100206.94;1457953;97;21207;-84
2022/03/31 03:36:04;;;;;;;50.67;15.83;;;;;;;7.70;100.00;100205.09;1463200;97;21028;-84
2022/03/31 03:38:31;;;;;;;50.03;15.23;;;;;;;7.73;100.00;100205.12;1464106;97;21224;-84
2022/03/31 03:41:11;;;;;;;57.15;16.17;;;;;;;7.76;100.00;100207.84;1442464;98;21615;-84
2022/03/31 03:43:40;;;;;;;54.93;15.03;;;;;;;7.80;100.00;100210.33;1530586;89;21088;-83
2022/03/31 03:46:06;;;;;;;59.70;21.35;;;;;;;7.87;100.00;100213.08;1577588;90;21116;-84
2022/03/31 03:48:33;;;;;;;58.73;18.60;;;;;;;7.92;100.00;100209.66;1545598;91;21123;-83
2022/03/31 03:51:00;;;;;;;52.03;17.55;;;;;;;7.98;100.00;100207.30;1567365;90;21092;-84
2022/03/31 03:53:26;;;;;;;56.88;16.82;;;;;;;8.04;100.00;100204.95;1563007;91;21146;-83
2022/03/31 03:55:55;;;;;;;68.97;22.22;;;;;;;8.11;100.00;100209.57;1563527;90;21014;-84
2022/03/31 03:58:21;;;;;;;62.62;18.80;;;;;;;8.16;100.00;100204.27;1538808;92;22122;-83
2022/03/31 04:00:48;;;;;;;53.28;16.32;;;;;;;8.23;100.00;100193.31;1551198;92;21663;-83
2022/03/31 04:03:14;;;;;;;56.13;16.75;;;;;;;8.29;100.00;100196.86;1562911;89;21707;-83
2022/03/31 04:05:40;;;;;;;59.65;18.02;;;;;;;8.31;100.00;100200.91;1559357;90;21100;-83
2022/03/31 04:08:07;;;;;;;61.30;20.10;;;;;;;8.38;100.00;100206.06;1600371;88;21064;-83
2022/03/31 04:10:34;;;;;;;68.20;20.52;;;;;;;8.42;100.00;100200.52;1597783;88;21840;-84
2022/03/31 04:13:00;;;;;;;56.83;19.98;;;;;;;8.49;100.00;100202.98;1600102;88;21538;-84
2022/03/31 04:15:27;;;;;;;67.60;19.77;;;;;;;8.56;100.00;100198.20;1590513;88;21152;-83
2022/03/31 04:17:54;;;;;;;54.80;18.30;;;;;;;8.60;100.00;100197.98;1572581;89;21082;-84
2022/03/31 04:20:21;;;;;;;70.42;18.95;;;;;;;8.63;100.00;100212.23;1601614;88;21143;-83
2022/03/31 04:22:47;;;;;;;47.27;17.10;;;;;;;8.67;100.00;100207.96;1601771;88;21380;-84
2022/03/31 04:25:14;;;;;;;49.88;17.50;;;;;;;8.71;100.00;100199.69;1600356;88;21558;-84
2022/03/31 04:27:41;;;;;;;45.23;15.23;;;;;;;8.76;100.00;100201.05;1599823;88;20958;-84
2022/03/31 04:30:11;;;;;;;63.63;20.50;;;;;;;8.81;100.00;100206.46;1593314;88;21139;-85
2022/03/31 04:32:38;;;;;;;63.38;19.73;;;;;;;8.85;100.00;100202.72;1587370;88;21093;-84
2022/03/31 04:35:07;;;;;;;64.92;21.87;;;;;;;8.86;100.00;100191.73;1597349;88;21931;-84
2022/03/31 04:37:34;;;;;;;56.37;18.90;;;;;;;8.92;100.00;100193.92;1594833;88;21115;-84
2022/03/31 04:40:02;;;;;;;66.40;21.20;;;;;;;9.00;100.00;100200.67;1616192;85;21582;-84
2022/03/31 04:42:28;;;;;;;61.48;19.00;;;;;;;9.06;100.00;100203.70;1646705;86;21042;-84
2022/03/31 04:44:55;;;;;;;68.50;20.57;;;;;;;9.10;100.00;100198.87;1651896;85;21141;-84
2022/03/31 04:47:22;;;;;;;58.58;18.92;;;;;;;9.14;100.00;100197.81;1651046;85;21235;-84
2022/03/31 04:49:48;;;;;;;58.78;17.12;;;;;;;9.21;100.00;100196.25;1651615;85;21088;-84
2022/03/31 04:52:15;;;;;;;52.85;16.60;;;;;;;9.25;100.00;100193.31;1642493;85;21689;-84
2022/03/31 04:54:43;;;;;;;62.83;18.23;;;;;;;9.31;100.00;100201.13;1678754;80;21054;-84
2022/03/31 04:57:15;;;;;;;56.10;17.82;;;;;;;9.37;100.00;100193.91;1708101;82;21101;-84
2022/03/31 04:59:43;;;;;;;48.42;16.87;;;;;;;9.45;100.00;100189.92;1692199;82;21589;-84
2022/03/31 05:02:11;;;;;;;47.62;16.55;;;;;;;9.54;100.00;100175.70;1692431;83;21066;-84
2022/03/31 05:04:37;;;;;;;46.20;16.02;;;;;;;9.60;100.00;100179.22;1696345;83;21177;-84
2022/03/31 05:07:04;;;;;;;44.65;15.30;;;;;;;9.68;100.00;100176.56;1697510;82;21593;-84
2022/03/31 05:09:30;;;;;;;47.95;16.15;;;;;;;9.76;100.00;100188.14;1692786;83;21149;-84
2022/03/31 05:11:57;;;;;;;46.00;14.60;;;;;;;9.81;100.00;100178.75;1702032;83;21079;-84
2022/03/31 05:14:24;;;;;;;47.65;14.85;;;;;;;9.89;100.00;100177.44;1707494;83;21198;-83
2022/03/31 05:16:50;;;;;;;47.08;15.13;;;;;;;9.94;100.00;100182.30;1702443;83;21635;-83
2022/03/31 05:19:17;;;;;;;46.20;15.45;;;;;;;9.99;100.00;100189.02;1703315;82;21074;-84
2022/03/31 05:21:44;;;;;;;40.12;14.73;;;;;;;10.05;100.00;100187.69;1694816;82;21084;-83
2022/03/31 05:24:10;;;;;;;41.58;15.68;;;;;;;10.12;100.00;100191.75;1749948;80;21824;-84
2022/03/31 05:26:37;;;;;;;43.90;15.80;;;;;;;10.19;100.00;100188.25;1746312;80;21117;-84
2022/03/31 05:29:03;;;;;;;43.78;15.35;;;;;;;10.24;100.00;100199.58;1747122;80;21015;-82
2022/03/31 05:31:29;;;;;;;47.43;14.85;;;;;;;10.29;100.00;100207.67;1755417;80;21096;-82
2022/03/31 05:33:56;;;;;;;47.98;15.58;;;;;;;10.36;100.00;100208.24;1743370;80;21610;-82
2022/03/31 05:36:22;;;;;;;47.48;14.25;;;;;;;10.42;100.00;100198.28;1741622;80;21108;-82
2022/03/31 05:41:17;;;;;;;39.30;13.55;;;;;;;10.57;100.00;100214.45;1664700;84;21475;-80
2022/03/31 05:43:43;;;;;;;44.53;14.87;;;;;;;10.65;100.00;100219.85;1660836;84;21628;-81
2022/03/31 05:46:10;;;;;;;42.10;14.70;;;;;;;10.75;100.00;100221.73;1661178;84;21021;-80
2022/03/31 05:48:36;;;;;;;48.55;15.32;;;;;;;10.85;100.00;100218.50;1664068;84;21073;-81
2022/03/31 05:51:02;;;;;;;45.75;15.05;;;;;;;11.01;100.00;100223.87;1666556;84;21013;-80
2022/03/31 05:53:29;;;;;;;41.90;13.32;;;;;;;11.13;100.00;100212.25;1666432;84;20965;-80
2022/03/31 05:55:55;;;;;;;38.25;13.58;;;;;;;11.23;100.00;100209.52;1661046;84;21527;-81
2022/03/31 05:58:21;;;;;;;45.38;14.43;;;;;;;11.33;100.00;100210.86;1663796;84;21121;-82
2022/03/31 06:00:49;;;;;;;37.98;13.85;;;;;;;11.43;100.00;100206.51;1660747;84;21141;-81
2022/03/31 06:03:21;;;;;;;41.02;13.22;;;;;;;11.58;100.00;100205.10;1658632;84;21046;-81
2022/03/31 06:05:44;;;;;;;42.73;13.20;;;;;;;11.73;100.00;100219.08;1663433;84;21069;-81
2022/03/31 06:08:11;;;;;;;34.90;12.10;;;;;;;11.81;100.00;100222.55;1660956;84;21038;-80
2022/03/31 06:10:37;;;;;;;30.85;11.80;;;;;;;11.91;100.00;100227.13;1660688;84;21666;-81
2022/03/31 06:13:04;;;;;;;33.30;11.73;;;;;;;11.99;100.00;100219.80;1642631;85;21620;-80
2022/03/31 06:15:31;;;;;;;35.90;12.10;;;;;;;12.09;100.00;100212.17;1659278;84;21270;-80
2022/03/31 06:17:58;;;;;;;37.75;12.18;;;;;;;12.16;100.00;100215.39;1676421;80;21022;-80
2022/03/31 06:20:27;;;;;;;30.70;11.12;;;;;;;12.24;100.00;100214.25;1753778;80;21518;-80
2022/03/31 06:22:54;;;;;;;38.05;10.70;;;;;;;12.36;100.00;100205.80;1743995;80;20959;-80
2022/03/31 06:25:21;;;;;;;39.50;11.43;;;;;;;12.44;100.00;100213.83;1718283;81;21077;-80
2022/03/31 06:27:48;;;;;;;43.70;11.63;;;;;;;12.53;100.00;100218.93;1716498;81;21950;-80
2022/03/31 06:30:17;;;;;;;35.35;10.40;;;;;;;12.66;100.00;100216.92;1720212;81;21121;-81
2022/03/31 06:32:44;;;;;;;31.33;10.28;;;;;;;12.78;100.00;100225.21;1710223;82;21125;-80
2022/03/31 06:35:14;;;;;;;29.98;9.78;;;;;;;12.81;100.00;100213.83;1718249;81;21067;-81
2022/03/31 06:37:42;;;;;;;31.25;9.50;;;;;;;12.89;100.00;100211.86;1710873;82;21006;-81
2022/03/31 06:40:12;;;;;;;30.40;9.30;;;;;;;12.99;100.00;100216.36;1654935;85;21405;-81
2022/03/31 06:42:41;;;;;;;26.65;9.50;;;;;;;13.09;100.00;100213.03;1661404;84;21685;-80
2022/03/31 06:45:12;;;;;;;33.40;8.75;;;;;;;13.20;100.00;100198.83;1656994;84;21677;-80
2022/03/31 06:47:44;;;;;;;31.02;9.40;;;;;;;13.34;100.00;100203.85;1646667;85;21092;-80
2022/03/31 06:50:13;;;;;;;36.30;9.48;;;;;;;13.45;100.00;100201.84;1601468;88;21085;-80
2022/03/31 06:52:45;;;;;;;29.10;9.58;;;;;;;13.60;100.00;100203.56;1607613;87;22280;-80
2022/03/31 06:55:12;;;;;;;24.95;8.98;;;;;;;13.74;100.00;100205.83;1579312;88;21209;-80
2022/03/31 06:57:40;;;;;;;29.57;9.05;;;;;;;13.91;100.00;100193.13;1602926;87;21062;-79
2022/03/31 07:00:10;;;;;;;33.02;9.03;;;;;;;14.16;100.00;100196.59;1614074;87;21014;-80
2022/03/31 07:02:37;;;;;;;23.20;8.80;;;;;;;14.41;100.00;100196.22;1622542;86;21790;-80
2022/03/31 07:05:06;;;;;;;35.90;8.65;;;;;;;14.56;100.00;100204.69;1632350;84;21488;-79
2022/03/31 07:07:32;;;;;;;29.85;8.73;;;;;;;14.68;100.00;100202.32;1609979;86;21077;-78
2022/03/31 07:10:01;;;;;;;28.65;8.98;;;;;;;14.79;100.00;100196.15;1626725;86;21092;-79
2022/03/31 07:12:28;;;;;;;27.27;8.13;;;;;;;14.96;100.00;100196.95;1607131;87;21148;-79
2022/03/31 07:14:54;;;;;;;31.12;8.33;;;;;;;15.04;100.00;100192.20;1608052;86;21134;-79
2022/03/31 07:17:21;;;;;;;22.25;7.55;;;;;;;15.04;100.00;100171.05;1640777;85;21013;-79
2022/03/31 07:19:48;;;;;;;26.20;7.08;;;;;;;14.92;96.28;100161.48;1607723;87;21158;-80
2022/03/31 07:22:15;;;;;;;25.72;7.65;;;;;;;14.92;96.28;100161.48;1656157;84;21049;-84
2022/03/31 07:24:45;;;;;;;30.35;7.87;;;;;;;15.05;94.37;100172.64;1650290;85;21105;-87
2022/03/31 07:27:12;;;;;;;18.73;7.03;;;;;;;15.01;93.50;100176.52;1649383;85;21150;-87
2022/03/31 07:29:40;;;;;;;30.57;7.53;;;;;;;15.09;93.79;100175.00;1652467;85;21043;-87
2022/03/31 07:32:08;;;;;;;19.12;7.37;;;;;;;15.21;92.52;100180.77;1601909;88;22509;-87
2022/03/31 07:34:35;;;;;;;23.52;7.65;;;;;;;15.43;94.20;100184.92;1603798;88;21241;-85
2022/03/31 07:37:07;;;;;;;26.07;7.53;;;;;;;15.69;87.21;100174.12;1591006;88;21067;-88
2022/03/31 07:39:35;;;;;;;25.40;7.03;;;;;;;15.92;86.03;100173.08;1609436;87;21176;-84
2022/03/31 07:42:04;;;;;;;29.23;7.72;;;;;;;16.54;84.15;100175.97;1568037;88;21136;-85
2022/03/31 07:44:31;;;;;;;20.27;7.28;;;;;;;17.12;75.49;100175.61;1657363;84;21049;-85
2022/03/31 07:46:58;;;;;;;22.82;7.20;;;;;;;17.15;71.53;100173.61;1657451;84;21096;-84
2022/03/31 07:49:25;;;;;;;21.60;6.92;;;;;;;17.42;68.86;100179.39;1656193;84;21213;-84
2022/03/31 07:51:52;;;;;;;35.83;6.87;;;;;;;18.00;67.81;100170.65;1659854;84;21111;-85
2022/03/31 07:54:19;;;;;;;25.50;7.10;;;;;;;18.17;64.71;100182.10;1655718;84;21517;-85
2022/03/31 07:56:49;;;;;;;23.83;7.20;;;;;;;18.37;62.56;100176.00;1661326;84;21035;-85
2022/03/31 07:59:21;;;;;;;20.05;7.08;;;;;;;18.69;61.36;100167.05;1656225;84;21013;-84
2022/03/31 08:01:48;;;;;;;19.35;6.92;;;;;;;19.31;58.06;100173.93;1661871;84;21590;-85
2022/03/31 08:04:16;;;;;;;25.70;7.17;;;;;;;19.76;56.78;100168.48;1662007;84;22015;-85
2022/03/31 08:06:43;;;;;;;20.75;6.85;;;;;;;20.23;53.44;100171.81;1656424;84;21120;-86
2022/03/31 08:09:12;;;;;;;17.85;6.85;;;;;;;20.09;48.77;100174.02;1656227;84;21599;-85
2022/03/31 08:11:39;;;;;;;25.62;6.67;;;;;;;19.74;49.07;100170.20;1635807;84;21143;-86
2022/03/31 08:14:06;;;;;;;18.52;6.40;;;;;;;19.47;48.67;100183.19;1639351;85;21763;-85
2022/03/31 08:16:33;;;;;;;24.63;7.55;;;;;;;19.03;49.17;100182.56;1638877;85;22232;-85
2022/03/31 08:19:00;;;;;;;27.48;6.80;;;;;;;18.65;49.96;100180.28;1618463;86;21034;-85
2022/03/31 08:21:29;;;;;;;29.63;6.37;;;;;;;18.23;50.66;100186.27;1616621;86;21035;-86
2022/03/31 08:23:56;;;;;;;23.00;6.50;;;;;;;18.02;51.98;100187.47;1639944;85;21125;-86
2022/03/31 08:26:24;;;;;;;31.00;7.00;;;;;;;17.78;52.02;100177.59;1634681;86;21051;-85
2022/03/31 08:28:51;;;;;;;23.65;6.75;;;;;;;17.61;52.94;100176.95;1683470;81;21075;-85
2022/03/31 08:31:20;;;;;;;23.77;6.72;;;;;;;17.74;53.32;100179.33;1722623;81;21554;-86
2022/03/31 08:33:49;;;;;;;21.17;7.25;;;;;;;17.95;53.31;100174.88;1654429;85;21527;-85
2022/03/31 08:36:18;;;;;;;24.63;6.78;;;;;;;18.02;53.06;100178.48;1663454;84;21223;-84
2022/03/31 08:38:45;;;;;;;28.47;7.25;;;;;;;17.99;52.22;100168.22;1633456;85;21082;-85
2022/03/31 08:41:17;;;;;;;23.80;6.50;;;;;;;18.20;53.66;100171.11;1617628;87;21266;-85
2022/03/31 08:43:45;;;;;;;24.15;6.00;;;;;;;18.25;51.77;100165.50;1618921;88;21570;-85
2022/03/31 08:46:15;;;;;;;24.27;6.80;;;;;;;18.47;50.76;100157.15;1626628;86;21085;-85
2022/03/31 08:48:43;;;;;;;27.73;7.05;;;;;;;19.44;50.99;100141.48;1624246;88;21085;-84
2022/03/31 08:51:10;;;;;;;24.98;6.70;;;;;;;21.09;48.21;100136.50;1624055;87;21587;-85
2022/03/31 08:53:39;;;;;;;25.27;5.95;;;;;;;22.63;46.06;100134.98;1620888;87;21944;-86
2022/03/31 08:56:18;;;;;;;18.23;6.17;;;;;;;23.79;43.16;100129.14;1620779;88;21036;-89
2022/03/31 08:58:38;;;;;;;26.37;7.12;;;;;;;24.68;40.15;100132.10;1620611;87;21182;-86
2022/03/31 09:01:08;;;;;;;19.60;7.15;;;;;;;25.28;38.46;100119.91;1625781;87;21230;-86
2022/03/31 09:03:38;;;;;;;25.88;6.28;;;;;;;25.97;37.93;100121.66;1625300;87;21086;-87
2022/03/31 09:06:10;;;;;;;25.15;6.53;;;;;;;26.57;37.27;100118.02;1699280;80;21918;-86
2022/03/31 09:08:40;;;;;;;19.55;5.97;;;;;;;27.17;35.56;100108.06;1753354;80;21471;-86
2022/03/31 09:11:08;;;;;;;18.77;5.75;;;;;;;27.23;33.32;100123.13;1747685;80;21023;-86
2022/03/31 09:13:38;;;;;;;19.07;6.87;;;;;;;27.14;34.05;100106.83;1742269;80;21156;-85
2022/03/31 09:16:11;;;;;;;26.62;6.35;;;;;;;27.50;33.93;100115.41;1743204;80;21039;-86
2022/03/31 09:18:41;;;;;;;17.82;5.85;;;;;;;27.37;31.97;100107.22;1742779;80;21566;-86
2022/03/31 09:21:12;;;;;;;25.65;6.83;;;;;;;27.36;31.93;100109.79;1744164;80;21149;-86
2022/03/31 09:23:46;;;;;;;22.30;6.25;;;;;;;27.46;31.86;100109.64;1747624;80;21089;-87
2022/03/31 09:26:17;;;;;;;17.30;5.75;;;;;;;27.62;31.94;100104.61;1747181;80;21057;-85
2022/03/31 09:31:32;;;;;;;21.25;6.35;;;;;;;27.46;32.31;100095.20;1669260;84;21014;-86
2022/03/31 09:34:05;;;;;;;21.02;5.33;;;;;;;27.72;32.60;100080.31;1668693;84;21111;-86
2022/03/31 09:36:39;;;;;;;18.55;5.45;;;;;;;27.80;31.44;100063.17;1634405;86;21119;-86
2022/03/31 09:39:24;;;;;;;;;;;;;;;;;;;;;
2022/03/31 09:41:42;;;;;;;14.85;5.70;;;;;;;27.47;30.90;100054.48;1452191;97;21143;-86
2022/03/31 09:44:35;;;;;;;;;;;;;;;;;;;;;
2022/03/31 09:46:54;;;;;;;20.85;5.53;;;;;;;26.68;32.03;100045.66;1389187;102;21095;-85
2022/03/31 09:49:28;;;;;;;18.55;5.28;;;;;;;26.30;31.31;100036.61;1400788;101;21047;-86
2022/03/31 09:54:35;;;;;;;20.52;6.10;;;;;;;25.53;32.94;100041.64;1296099;110;21304;-85
2022/03/31 09:57:11;;;;;;;25.10;5.60;;;;;;;25.44;33.27;100020.41;1296743;109;21282;-85
2022/03/31 09:59:42;;;;;;;15.40;5.15;;;;;;;25.27;33.49;100027.89;1280815;110;21690;-85
2022/03/31 10:02:09;;;;;;;20.48;5.12;;;;;;;25.11;33.36;100027.42;1303489;109;21200;-85
2022/03/31 10:04:36;;;;;;;23.38;5.90;;;;;;;24.96;33.49;100034.49;1323937;106;21332;-84
2022/03/31 10:07:08;;;;;;;24.25;5.10;;;;;;;24.87;34.12;100019.00;1325684;107;21426;-85
2022/03/31 10:09:39;;;;;;;20.27;5.07;;;;;;;24.68;34.02;100026.01;1306509;108;21439;-84
2022/03/31 10:12:42;;;;;;;;;;;;;;;;;;;;;
2022/03/31 10:18:53;;;;;;;26.05;5.80;;;;;;;24.61;33.98;100017.61;1259669;112;21694;-85
2022/03/31 10:24:59;;;;;;;14.50;4.47;;;;;;;25.27;33.59;100008.58;1280067;108;21745;-84
2022/03/31 10:27:35;;;;;;;14.45;5.05;;;;;;;25.28;32.16;100008.20;1277748;110;21188;-85
2022/03/31 10:30:25;;;;;;;17.73;4.70;;;;;;;24.92;32.65;100013.77;1269454;110;21294;-85
2022/03/31 10:33:07;;;;;;;22.15;5.47;;;;;;;24.60;32.46;100016.81;1259887;111;21369;-84
2022/03/31 10:35:41;;;;;;;24.82;4.80;;;;;;;24.17;32.42;100012.50;1267781;111;21240;-84
2022/03/31 10:38:19;;;;;;;26.70;5.35;;;;;;;23.81;32.69;100011.84;1234653;111;22298;-85
2022/03/31 10:41:03;;;;;;;24.50;4.87;;;;;;;23.80;33.04;100008.88;1219123;115;21249;-85
2022/03/31 10:43:33;;;;;;;14.28;4.35;;;;;;;23.86;33.01;100011.55;1214227;115;21154;-84
2022/03/31 10:46:04;;;;;;;21.48;5.00;;;;;;;24.16;32.99;100003.45;1231879;115;21159;-84
2022/03/31 10:48:31;;;;;;;24.37;4.78;;;;;;;24.40;31.81;100005.04;1249969;113;21352;-85
2022/03/31 10:51:12;;;;;;;26.02;5.22;;;;;;;24.59;32.12;100006.16;1232983;114;21172;-85
2022/03/31 10:53:48;;;;;;;30.35;5.40;;;;;;;24.78;32.34;100007.45;1236249;115;21859;-84
2022/03/31 10:56:27;;;;;;;25.88;5.40;;;;;;;24.95;31.18;100002.59;1280588;108;21301;-84
2022/03/31 10:59:00;;;;;;;21.62;4.53;;;;;;;24.75;31.04;99998.55;1289235;107;21204;-85
2022/03/31 11:01:39;;;;;;;21.27;3.72;;;;;;;24.42;30.73;99997.80;1303626;108;21188;-84
2022/03/31 11:04:09;;;;;;;24.95;5.20;;;;;;;24.17;31.00;99997.36;1291962;109;21296;-84
2022/03/31 11:06:48;;;;;;;23.42;4.15;;;;;;;24.00;31.29;100002.19;1323744;106;21296;-84
2022/03/31 11:09:31;;;;;;;22.98;4.47;;;;;;;24.17;31.00;100000.11;1347375;104;21174;-84
2022/03/31 11:11:59;;;;;;;18.87;4.17;;;;;;;24.36;30.60;99991.80;1325004;103;47299;-84
2022/03/31 11:14:28;;;;;;;29.27;4.50;;;;;;;24.47;30.75;99985.92;1347214;103;21749;-84
2022/03/31 11:16:57;;;;;;;20.45;4.28;;;;;;;24.62;30.04;99975.92;1335306;104;21578;-83
2022/03/31 11:19:28;;;;;;;24.98;4.58;;;;;;;24.65;30.23;99982.66;1345028;101;22397;-84
2022/03/31 11:21:57;;;;;;;25.23;5.00;;;;;;;24.40;29.40;99985.75;1422347;97;21182;-85
2022/03/31 11:24:26;;;;;;;23.77;5.08;;;;;;;24.39;30.27;99977.29;1424236;98;21806;-83
2022/03/31 11:26:54;;;;;;;24.18;4.45;;;;;;;24.42;29.64;99968.88;1407020;99;21666;-83
2022/03/31 11:29:26;;;;;;;23.83;4.62;;;;;;;24.37;29.70;99967.22;1346352;103;21207;-84
2022/03/31 11:31:57;;;;;;;27.30;4.80;;;;;;;24.48;29.85;99968.22;1314274;104;21331;-86
2022/03/31 11:34:29;;;;;;;29.67;4.90;;;;;;;24.54;29.23;99963.78;1326795;104;21274;-84
2022/03/31 11:36:57;;;;;;;25.27;4.87;;;;;;;24.55;29.70;99962.02;1339037;105;21151;-85
2022/03/31 11:39:30;;;;;;;26.87;4.78;;;;;;;24.61;28.47;99955.61;1342085;104;21399;-83
2022/03/31 11:41:59;;;;;;;29.35;4.87;;;;;;;24.68;29.24;99955.15;1396799;100;21232;-85